sensor_id;sensor_type;location;lat;lon;timestamp;temperature;humidity
13052;DHT22;6592;47.484;9.726;2022-08-03T00:02:15;21.20;99.90
13052;DHT22;6592;47.484;9.726;2022-08-03T00:04:44;21.10;99.90
13052;DHT22;6592;47.484;9.726;2022-08-03T00:07:12;21.10;99.90
13052;DHT22;6592;47.484;9.726;2022-08-03T00:09:40;21.10;99.90
13052;DHT22;6592;47.484;9.726;2022-08-03T00:12:08;21.10;99.90
13052;DHT22;6592;47.484;9.726;2022-08-03T00:14:37;21.20;99.90
13052;DHT22;6592;47.484;9.726;2022-08-03T00:17:06;21.00;99.90
13052;DHT22;6592;47.484;9.726;2022-08-03T00:19:34;21.00;99.90
13052;DHT22;6592;47.484;9.726;2022-08-03T00:22:02;21.00;99.90
13052;DHT22;6592;47.484;9.726;2022-08-03T00:24:30;20.90;99.90
13052;DHT22;6592;47.484;9.726;2022-08-03T00:26:58;20.90;99.90
13052;DHT22;6592;47.484;9.726;2022-08-03T00:29:26;20.90;99.90
13052;DHT22;6592;47.484;9.726;2022-08-03T00:31:55;20.90;99.90
13052;DHT22;6592;47.484;9.726;2022-08-03T00:34:26;21.00;99.90
13052;DHT22;6592;47.484;9.726;2022-08-03T00:37:14;20.90;99.90
13052;DHT22;6592;47.484;9.726;2022-08-03T00:39:42;20.90;99.90
13052;DHT22;6592;47.484;9.726;2022-08-03T00:42:12;20.80;99.90
13052;DHT22;6592;47.484;9.726;2022-08-03T00:44:41;20.60;99.90
13052;DHT22;6592;47.484;9.726;2022-08-03T00:47:11;20.70;99.90
13052;DHT22;6592;47.484;9.726;2022-08-03T00:49:39;20.70;99.90
13052;DHT22;6592;47.484;9.726;2022-08-03T00:52:08;20.70;99.90
13052;DHT22;6592;47.484;9.726;2022-08-03T00:54:36;20.70;99.90
13052;DHT22;6592;47.484;9.726;2022-08-03T00:57:05;20.70;99.90
13052;DHT22;6592;47.484;9.726;2022-08-03T00:59:33;20.70;99.90
13052;DHT22;6592;47.484;9.726;2022-08-03T01:02:02;20.60;99.90
13052;DHT22;6592;47.484;9.726;2022-08-03T01:04:32;20.60;99.90
13052;DHT22;6592;47.484;9.726;2022-08-03T01:07:02;20.60;99.90
13052;DHT22;6592;47.484;9.726;2022-08-03T01:09:37;20.60;99.90
13052;DHT22;6592;47.484;9.726;2022-08-03T01:12:09;20.60;99.90
13052;DHT22;6592;47.484;9.726;2022-08-03T01:14:43;20.50;99.90
13052;DHT22;6592;47.484;9.726;2022-08-03T01:17:13;20.50;99.90
13052;DHT22;6592;47.484;9.726;2022-08-03T01:19:49;20.40;99.90
13052;DHT22;6592;47.484;9.726;2022-08-03T01:22:24;20.30;99.90
13052;DHT22;6592;47.484;9.726;2022-08-03T01:24:58;20.20;99.90
13052;DHT22;6592;47.484;9.726;2022-08-03T01:27:30;20.10;99.90
13052;DHT22;6592;47.484;9.726;2022-08-03T01:30:05;20.10;99.90
13052;DHT22;6592;47.484;9.726;2022-08-03T01:32:36;20.10;99.90
13052;DHT22;6592;47.484;9.726;2022-08-03T01:35:27;20.10;99.90
13052;DHT22;6592;47.484;9.726;2022-08-03T01:37:57;20.00;99.90
13052;DHT22;6592;47.484;9.726;2022-08-03T01:40:27;20.00;99.90
13052;DHT22;6592;47.484;9.726;2022-08-03T01:42:56;19.90;99.90
13052;DHT22;6592;47.484;9.726;2022-08-03T01:45:27;20.00;99.90
13052;DHT22;6592;47.484;9.726;2022-08-03T01:47:59;19.90;99.90
13052;DHT22;6592;47.484;9.726;2022-08-03T01:50:28;19.90;99.90
13052;DHT22;6592;47.484;9.726;2022-08-03T01:52:57;19.80;99.90
13052;DHT22;6592;47.484;9.726;2022-08-03T01:55:25;19.80;99.90
13052;DHT22;6592;47.484;9.726;2022-08-03T01:57:54;19.80;99.90
13052;DHT22;6592;47.484;9.726;2022-08-03T02:00:33;19.90;99.90
13052;DHT22;6592;47.484;9.726;2022-08-03T02:03:03;19.90;99.90
13052;DHT22;6592;47.484;9.726;2022-08-03T02:05:31;19.80;99.90
13052;DHT22;6592;47.484;9.726;2022-08-03T02:08:01;19.80;99.90
13052;DHT22;6592;47.484;9.726;2022-08-03T02:10:30;19.80;99.90
13052;DHT22;6592;47.484;9.726;2022-08-03T02:13:02;19.80;99.90
13052;DHT22;6592;47.484;9.726;2022-08-03T02:15:30;19.80;99.90
13052;DHT22;6592;47.484;9.726;2022-08-03T02:18:00;19.80;99.90
13052;DHT22;6592;47.484;9.726;2022-08-03T02:20:29;19.80;99.90
13052;DHT22;6592;47.484;9.726;2022-08-03T02:23:02;19.70;99.90
13052;DHT22;6592;47.484;9.726;2022-08-03T02:25:30;19.60;99.90
13052;DHT22;6592;47.484;9.726;2022-08-03T02:28:00;19.50;99.90
13052;DHT22;6592;47.484;9.726;2022-08-03T02:30:32;19.40;99.90
13052;DHT22;6592;47.484;9.726;2022-08-03T02:33:05;19.40;99.90
13052;DHT22;6592;47.484;9.726;2022-08-03T02:35:35;19.40;99.90
13052;DHT22;6592;47.484;9.726;2022-08-03T02:38:04;19.40;99.90
13052;DHT22;6592;47.484;9.726;2022-08-03T02:40:34;19.40;99.90
13052;DHT22;6592;47.484;9.726;2022-08-03T02:43:04;19.50;99.90
13052;DHT22;6592;47.484;9.726;2022-08-03T02:45:34;19.50;99.90
13052;DHT22;6592;47.484;9.726;2022-08-03T02:48:04;19.60;99.90
13052;DHT22;6592;47.484;9.726;2022-08-03T02:50:33;19.60;99.90
13052;DHT22;6592;47.484;9.726;2022-08-03T02:53:02;19.50;99.90
13052;DHT22;6592;47.484;9.726;2022-08-03T02:55:32;19.50;99.90
13052;DHT22;6592;47.484;9.726;2022-08-03T02:58:08;19.50;99.90
13052;DHT22;6592;47.484;9.726;2022-08-03T03:00:38;19.50;99.90
13052;DHT22;6592;47.484;9.726;2022-08-03T03:03:08;19.40;99.90
13052;DHT22;6592;47.484;9.726;2022-08-03T03:05:37;19.40;99.90
13052;DHT22;6592;47.484;9.726;2022-08-03T03:08:22;19.30;99.90
13052;DHT22;6592;47.484;9.726;2022-08-03T03:10:54;19.30;99.90
13052;DHT22;6592;47.484;9.726;2022-08-03T03:13:23;19.30;99.90
13052;DHT22;6592;47.484;9.726;2022-08-03T03:15:51;19.20;99.90
13052;DHT22;6592;47.484;9.726;2022-08-03T03:18:21;19.20;99.90
13052;DHT22;6592;47.484;9.726;2022-08-03T03:20:49;19.10;99.90
13052;DHT22;6592;47.484;9.726;2022-08-03T03:23:18;19.10;99.90
13052;DHT22;6592;47.484;9.726;2022-08-03T03:25:47;19.10;99.90
13052;DHT22;6592;47.484;9.726;2022-08-03T03:28:15;19.20;99.90
13052;DHT22;6592;47.484;9.726;2022-08-03T03:30:43;19.20;99.90
13052;DHT22;6592;47.484;9.726;2022-08-03T03:33:18;19.20;99.90
13052;DHT22;6592;47.484;9.726;2022-08-03T03:35:48;19.20;99.90
13052;DHT22;6592;47.484;9.726;2022-08-03T03:38:17;19.30;99.90
13052;DHT22;6592;47.484;9.726;2022-08-03T03:40:45;19.30;99.90
13052;DHT22;6592;47.484;9.726;2022-08-03T03:43:13;19.30;99.90
13052;DHT22;6592;47.484;9.726;2022-08-03T03:45:42;19.40;99.90
13052;DHT22;6592;47.484;9.726;2022-08-03T03:48:11;19.20;99.90
13052;DHT22;6592;47.484;9.726;2022-08-03T03:50:39;19.20;99.90
13052;DHT22;6592;47.484;9.726;2022-08-03T03:53:09;19.10;99.90
13052;DHT22;6592;47.484;9.726;2022-08-03T03:55:37;19.10;99.90
13052;DHT22;6592;47.484;9.726;2022-08-03T03:58:25;19.10;99.90
13052;DHT22;6592;47.484;9.726;2022-08-03T04:00:53;19.10;99.90
13052;DHT22;6592;47.484;9.726;2022-08-03T04:03:21;19.10;99.90
13052;DHT22;6592;47.484;9.726;2022-08-03T04:05:49;19.10;99.90
13052;DHT22;6592;47.484;9.726;2022-08-03T04:08:37;19.00;99.90
13052;DHT22;6592;47.484;9.726;2022-08-03T04:11:23;19.00;99.90
13052;DHT22;6592;47.484;9.726;2022-08-03T04:13:57;19.00;99.90
13052;DHT22;6592;47.484;9.726;2022-08-03T04:16:28;19.00;99.90
13052;DHT22;6592;47.484;9.726;2022-08-03T04:18:58;18.90;99.90
13052;DHT22;6592;47.484;9.726;2022-08-03T04:21:27;18.80;99.90
13052;DHT22;6592;47.484;9.726;2022-08-03T04:23:58;18.80;99.90
13052;DHT22;6592;47.484;9.726;2022-08-03T04:26:28;18.70;99.90
13052;DHT22;6592;47.484;9.726;2022-08-03T04:28:57;18.70;99.90
13052;DHT22;6592;47.484;9.726;2022-08-03T04:31:27;18.70;99.90
13052;DHT22;6592;47.484;9.726;2022-08-03T04:33:56;18.70;99.90
13052;DHT22;6592;47.484;9.726;2022-08-03T04:36:25;18.70;99.90
13052;DHT22;6592;47.484;9.726;2022-08-03T04:38:54;18.70;99.90
13052;DHT22;6592;47.484;9.726;2022-08-03T04:41:26;18.70;99.90
13052;DHT22;6592;47.484;9.726;2022-08-03T04:43:55;18.70;99.90
13052;DHT22;6592;47.484;9.726;2022-08-03T04:46:25;18.80;99.90
13052;DHT22;6592;47.484;9.726;2022-08-03T04:48:53;18.80;99.90
13052;DHT22;6592;47.484;9.726;2022-08-03T04:51:21;18.90;99.90
13052;DHT22;6592;47.484;9.726;2022-08-03T04:53:50;18.90;99.90
13052;DHT22;6592;47.484;9.726;2022-08-03T04:56:18;18.90;99.90
13052;DHT22;6592;47.484;9.726;2022-08-03T04:58:47;19.00;99.90
13052;DHT22;6592;47.484;9.726;2022-08-03T05:01:15;19.10;99.90
13052;DHT22;6592;47.484;9.726;2022-08-03T05:03:46;19.20;99.90
13052;DHT22;6592;47.484;9.726;2022-08-03T05:06:14;19.30;99.90
13052;DHT22;6592;47.484;9.726;2022-08-03T05:08:42;19.40;99.90
13052;DHT22;6592;47.484;9.726;2022-08-03T05:11:13;19.50;99.90
13052;DHT22;6592;47.484;9.726;2022-08-03T05:13:41;19.60;99.90
13052;DHT22;6592;47.484;9.726;2022-08-03T05:16:10;19.60;99.90
13052;DHT22;6592;47.484;9.726;2022-08-03T05:18:39;19.80;99.90
13052;DHT22;6592;47.484;9.726;2022-08-03T05:21:07;19.90;99.90
13052;DHT22;6592;47.484;9.726;2022-08-03T05:23:35;19.90;99.90
13052;DHT22;6592;47.484;9.726;2022-08-03T05:26:04;20.00;99.90
13052;DHT22;6592;47.484;9.726;2022-08-03T05:28:32;20.00;99.90
13052;DHT22;6592;47.484;9.726;2022-08-03T05:31:00;20.00;99.90
13052;DHT22;6592;47.484;9.726;2022-08-03T05:33:30;20.00;99.90
13052;DHT22;6592;47.484;9.726;2022-08-03T05:35:58;20.10;99.90
13052;DHT22;6592;47.484;9.726;2022-08-03T05:38:30;20.20;99.90
13052;DHT22;6592;47.484;9.726;2022-08-03T05:41:00;20.20;99.90
13052;DHT22;6592;47.484;9.726;2022-08-03T05:43:48;20.30;99.90
13052;DHT22;6592;47.484;9.726;2022-08-03T05:46:16;20.40;99.90
13052;DHT22;6592;47.484;9.726;2022-08-03T05:48:45;20.50;99.90
13052;DHT22;6592;47.484;9.726;2022-08-03T05:51:13;20.60;99.90
13052;DHT22;6592;47.484;9.726;2022-08-03T05:53:41;21.00;99.90
13052;DHT22;6592;47.484;9.726;2022-08-03T05:56:10;21.80;99.90
13052;DHT22;6592;47.484;9.726;2022-08-03T05:58:41;22.50;99.90
13052;DHT22;6592;47.484;9.726;2022-08-03T06:01:09;23.10;99.90
13052;DHT22;6592;47.484;9.726;2022-08-03T06:03:37;23.60;99.90
13052;DHT22;6592;47.484;9.726;2022-08-03T06:06:06;23.90;99.90
13052;DHT22;6592;47.484;9.726;2022-08-03T06:08:35;24.10;99.90
13052;DHT22;6592;47.484;9.726;2022-08-03T06:11:03;24.40;99.90
13052;DHT22;6592;47.484;9.726;2022-08-03T06:13:31;24.70;99.90
13052;DHT22;6592;47.484;9.726;2022-08-03T06:15:59;25.20;99.90
13052;DHT22;6592;47.484;9.726;2022-08-03T06:18:27;25.60;99.90
13052;DHT22;6592;47.484;9.726;2022-08-03T06:20:55;25.70;99.90
13052;DHT22;6592;47.484;9.726;2022-08-03T06:23:41;25.90;99.90
13052;DHT22;6592;47.484;9.726;2022-08-03T06:26:24;25.90;99.90
13052;DHT22;6592;47.484;9.726;2022-08-03T06:28:53;25.60;99.90
13052;DHT22;6592;47.484;9.726;2022-08-03T06:31:22;25.90;99.90
13052;DHT22;6592;47.484;9.726;2022-08-03T06:34:02;26.10;99.90
13052;DHT22;6592;47.484;9.726;2022-08-03T06:36:50;26.30;99.90
13052;DHT22;6592;47.484;9.726;2022-08-03T06:39:20;26.40;99.90
13052;DHT22;6592;47.484;9.726;2022-08-03T06:41:50;26.40;99.90
13052;DHT22;6592;47.484;9.726;2022-08-03T06:44:18;26.30;99.90
13052;DHT22;6592;47.484;9.726;2022-08-03T06:46:46;26.50;99.90
13052;DHT22;6592;47.484;9.726;2022-08-03T06:49:14;26.90;99.90
13052;DHT22;6592;47.484;9.726;2022-08-03T06:51:42;26.80;99.90
13052;DHT22;6592;47.484;9.726;2022-08-03T06:54:32;27.20;99.90
13052;DHT22;6592;47.484;9.726;2022-08-03T06:57:00;27.60;99.90
13052;DHT22;6592;47.484;9.726;2022-08-03T06:59:28;27.90;99.90
13052;DHT22;6592;47.484;9.726;2022-08-03T07:02:16;28.30;99.90
13052;DHT22;6592;47.484;9.726;2022-08-03T07:04:46;28.80;99.90
13052;DHT22;6592;47.484;9.726;2022-08-03T07:07:14;29.10;99.90
13052;DHT22;6592;47.484;9.726;2022-08-03T07:09:44;29.30;99.90
13052;DHT22;6592;47.484;9.726;2022-08-03T07:12:23;29.60;99.90
13052;DHT22;6592;47.484;9.726;2022-08-03T07:14:51;30.40;99.90
13052;DHT22;6592;47.484;9.726;2022-08-03T07:17:26;30.70;99.90
13052;DHT22;6592;47.484;9.726;2022-08-03T07:19:54;31.20;99.90
13052;DHT22;6592;47.484;9.726;2022-08-03T07:22:22;32.00;99.90
13052;DHT22;6592;47.484;9.726;2022-08-03T07:24:52;32.50;98.00
13052;DHT22;6592;47.484;9.726;2022-08-03T07:27:20;33.40;95.60
13052;DHT22;6592;47.484;9.726;2022-08-03T07:29:48;34.20;94.20
13052;DHT22;6592;47.484;9.726;2022-08-03T07:32:16;33.60;93.00
13052;DHT22;6592;47.484;9.726;2022-08-03T07:34:44;33.30;92.80
13052;DHT22;6592;47.484;9.726;2022-08-03T07:37:12;33.90;91.50
13052;DHT22;6592;47.484;9.726;2022-08-03T07:39:41;34.60;86.50
13052;DHT22;6592;47.484;9.726;2022-08-03T07:42:10;35.00;82.30
13052;DHT22;6592;47.484;9.726;2022-08-03T07:44:38;35.60;80.00
13052;DHT22;6592;47.484;9.726;2022-08-03T07:47:06;36.10;77.50
13052;DHT22;6592;47.484;9.726;2022-08-03T07:49:37;35.90;76.30
13052;DHT22;6592;47.484;9.726;2022-08-03T07:52:05;35.70;76.20
13052;DHT22;6592;47.484;9.726;2022-08-03T07:54:54;36.30;76.40
13052;DHT22;6592;47.484;9.726;2022-08-03T07:57:23;36.00;72.10
13052;DHT22;6592;47.484;9.726;2022-08-03T07:59:51;35.40;72.80
13052;DHT22;6592;47.484;9.726;2022-08-03T08:02:28;34.90;75.30
13052;DHT22;6592;47.484;9.726;2022-08-03T08:04:56;34.30;75.70
13052;DHT22;6592;47.484;9.726;2022-08-03T08:07:30;35.00;77.60
13052;DHT22;6592;47.484;9.726;2022-08-03T08:09:59;35.90;72.00
13052;DHT22;6592;47.484;9.726;2022-08-03T08:12:28;36.80;70.10
13052;DHT22;6592;47.484;9.726;2022-08-03T08:14:56;37.50;68.30
13052;DHT22;6592;47.484;9.726;2022-08-03T08:17:24;38.20;67.00
13052;DHT22;6592;47.484;9.726;2022-08-03T08:19:52;38.80;65.90
13052;DHT22;6592;47.484;9.726;2022-08-03T08:22:20;39.40;64.10
13052;DHT22;6592;47.484;9.726;2022-08-03T08:24:56;39.80;61.80
13052;DHT22;6592;47.484;9.726;2022-08-03T08:27:24;40.00;60.40
13052;DHT22;6592;47.484;9.726;2022-08-03T08:29:54;40.30;56.70
13052;DHT22;6592;47.484;9.726;2022-08-03T08:32:33;40.80;57.20
13052;DHT22;6592;47.484;9.726;2022-08-03T08:35:03;41.10;55.90
13052;DHT22;6592;47.484;9.726;2022-08-03T08:37:31;41.20;53.00
13052;DHT22;6592;47.484;9.726;2022-08-03T08:39:59;40.90;52.70
13052;DHT22;6592;47.484;9.726;2022-08-03T08:42:27;40.30;54.30
13052;DHT22;6592;47.484;9.726;2022-08-03T08:44:57;40.10;53.50
13052;DHT22;6592;47.484;9.726;2022-08-03T08:47:28;40.40;51.40
13052;DHT22;6592;47.484;9.726;2022-08-03T08:50:17;40.20;50.60
13052;DHT22;6592;47.484;9.726;2022-08-03T08:52:53;39.90;51.10
13052;DHT22;6592;47.484;9.726;2022-08-03T08:55:22;39.90;50.60
13052;DHT22;6592;47.484;9.726;2022-08-03T08:57:51;39.00;52.80
13052;DHT22;6592;47.484;9.726;2022-08-03T09:00:20;38.80;52.90
13052;DHT22;6592;47.484;9.726;2022-08-03T09:02:49;38.60;55.10
13052;DHT22;6592;47.484;9.726;2022-08-03T09:05:18;38.30;57.10
13052;DHT22;6592;47.484;9.726;2022-08-03T09:08:06;38.70;56.30
13052;DHT22;6592;47.484;9.726;2022-08-03T09:10:34;39.60;57.00
13052;DHT22;6592;47.484;9.726;2022-08-03T09:13:02;40.30;55.00
13052;DHT22;6592;47.484;9.726;2022-08-03T09:15:32;41.00;52.70
13052;DHT22;6592;47.484;9.726;2022-08-03T09:18:00;41.20;52.40
13052;DHT22;6592;47.484;9.726;2022-08-03T09:20:31;41.30;50.10
13052;DHT22;6592;47.484;9.726;2022-08-03T09:22:59;41.60;50.90
13052;DHT22;6592;47.484;9.726;2022-08-03T09:25:47;41.80;51.00
13052;DHT22;6592;47.484;9.726;2022-08-03T09:28:25;42.30;53.80
13052;DHT22;6592;47.484;9.726;2022-08-03T09:31:22;42.50;51.30
13052;DHT22;6592;47.484;9.726;2022-08-03T09:33:55;42.80;50.50
13052;DHT22;6592;47.484;9.726;2022-08-03T09:36:33;43.20;50.60
13052;DHT22;6592;47.484;9.726;2022-08-03T09:39:01;43.40;49.90
13052;DHT22;6592;47.484;9.726;2022-08-03T09:41:31;43.40;50.50
13052;DHT22;6592;47.484;9.726;2022-08-03T09:43:59;43.50;49.10
13052;DHT22;6592;47.484;9.726;2022-08-03T09:46:29;43.50;49.10
13052;DHT22;6592;47.484;9.726;2022-08-03T09:49:08;43.60;48.30
13052;DHT22;6592;47.484;9.726;2022-08-03T09:51:37;43.70;49.20
13052;DHT22;6592;47.484;9.726;2022-08-03T09:54:25;43.80;48.10
13052;DHT22;6592;47.484;9.726;2022-08-03T09:56:54;43.70;50.60
13052;DHT22;6592;47.484;9.726;2022-08-03T09:59:23;43.80;49.00
13052;DHT22;6592;47.484;9.726;2022-08-03T10:01:53;44.00;50.10
13052;DHT22;6592;47.484;9.726;2022-08-03T10:04:21;44.20;49.60
13052;DHT22;6592;47.484;9.726;2022-08-03T10:07:03;43.80;48.60
13052;DHT22;6592;47.484;9.726;2022-08-03T10:09:31;43.80;48.80
13052;DHT22;6592;47.484;9.726;2022-08-03T10:12:06;43.90;48.40
13052;DHT22;6592;47.484;9.726;2022-08-03T10:14:35;44.00;50.90
13052;DHT22;6592;47.484;9.726;2022-08-03T10:17:05;44.00;51.00
13052;DHT22;6592;47.484;9.726;2022-08-03T10:19:34;43.90;49.90
13052;DHT22;6592;47.484;9.726;2022-08-03T10:22:02;44.00;49.30
13052;DHT22;6592;47.484;9.726;2022-08-03T10:24:32;44.00;48.50
13052;DHT22;6592;47.484;9.726;2022-08-03T10:27:01;44.20;49.20
13052;DHT22;6592;47.484;9.726;2022-08-03T10:29:31;44.10;48.70
13052;DHT22;6592;47.484;9.726;2022-08-03T10:32:01;43.90;49.40
13052;DHT22;6592;47.484;9.726;2022-08-03T10:34:33;43.70;49.00
13052;DHT22;6592;47.484;9.726;2022-08-03T10:37:02;43.60;49.30
13052;DHT22;6592;47.484;9.726;2022-08-03T10:39:34;43.40;48.80
13052;DHT22;6592;47.484;9.726;2022-08-03T10:42:02;43.60;49.80
13052;DHT22;6592;47.484;9.726;2022-08-03T10:44:40;43.40;48.80
13052;DHT22;6592;47.484;9.726;2022-08-03T10:47:09;43.20;48.90
13052;DHT22;6592;47.484;9.726;2022-08-03T10:49:38;42.80;48.90
13052;DHT22;6592;47.484;9.726;2022-08-03T10:52:08;42.70;48.90
13052;DHT22;6592;47.484;9.726;2022-08-03T10:54:56;42.80;48.60
13052;DHT22;6592;47.484;9.726;2022-08-03T10:57:45;42.80;49.50
13052;DHT22;6592;47.484;9.726;2022-08-03T11:00:15;42.90;50.50
13052;DHT22;6592;47.484;9.726;2022-08-03T11:03:03;42.60;49.50
13052;DHT22;6592;47.484;9.726;2022-08-03T11:05:34;42.90;50.40
13052;DHT22;6592;47.484;9.726;2022-08-03T11:10:45;43.30;49.40
13052;DHT22;6592;47.484;9.726;2022-08-03T11:13:14;43.70;49.80
13052;DHT22;6592;47.484;9.726;2022-08-03T11:15:42;44.00;49.60
13052;DHT22;6592;47.484;9.726;2022-08-03T11:18:11;44.20;49.60
13052;DHT22;6592;47.484;9.726;2022-08-03T11:20:47;44.10;47.70
13052;DHT22;6592;47.484;9.726;2022-08-03T11:23:17;44.10;48.70
13052;DHT22;6592;47.484;9.726;2022-08-03T11:26:09;44.00;49.60
13052;DHT22;6592;47.484;9.726;2022-08-03T11:28:37;44.00;50.10
13052;DHT22;6592;47.484;9.726;2022-08-03T11:34:14;44.50;49.10
13052;DHT22;6592;47.484;9.726;2022-08-03T11:39:38;44.80;48.60
13052;DHT22;6592;47.484;9.726;2022-08-03T11:44:54;44.90;49.10
13052;DHT22;6592;47.484;9.726;2022-08-03T11:47:23;44.90;48.50
13052;DHT22;6592;47.484;9.726;2022-08-03T11:49:53;44.80;48.90
13052;DHT22;6592;47.484;9.726;2022-08-03T11:52:21;44.80;47.70
13052;DHT22;6592;47.484;9.726;2022-08-03T11:54:55;44.60;48.50
13052;DHT22;6592;47.484;9.726;2022-08-03T11:57:27;44.40;47.90
13052;DHT22;6592;47.484;9.726;2022-08-03T12:00:22;44.30;49.80
13052;DHT22;6592;47.484;9.726;2022-08-03T12:03:02;44.30;48.00
13052;DHT22;6592;47.484;9.726;2022-08-03T12:05:32;44.30;48.50
13052;DHT22;6592;47.484;9.726;2022-08-03T12:08:00;44.40;49.10
13052;DHT22;6592;47.484;9.726;2022-08-03T12:10:34;44.40;49.30
13052;DHT22;6592;47.484;9.726;2022-08-03T12:13:02;44.30;48.70
13052;DHT22;6592;47.484;9.726;2022-08-03T12:15:55;44.10;49.20
13052;DHT22;6592;47.484;9.726;2022-08-03T12:18:23;44.00;49.80
13052;DHT22;6592;47.484;9.726;2022-08-03T12:20:51;44.00;50.00
13052;DHT22;6592;47.484;9.726;2022-08-03T12:23:20;44.10;48.80
13052;DHT22;6592;47.484;9.726;2022-08-03T12:25:49;44.00;48.70
13052;DHT22;6592;47.484;9.726;2022-08-03T12:28:18;44.00;49.60
13052;DHT22;6592;47.484;9.726;2022-08-03T12:31:03;43.70;49.20
13052;DHT22;6592;47.484;9.726;2022-08-03T12:33:32;43.70;49.60
13052;DHT22;6592;47.484;9.726;2022-08-03T12:36:20;43.70;49.60
13052;DHT22;6592;47.484;9.726;2022-08-03T12:38:53;43.80;49.90
13052;DHT22;6592;47.484;9.726;2022-08-03T12:41:27;43.70;50.00
13052;DHT22;6592;47.484;9.726;2022-08-03T12:43:56;43.60;49.00
13052;DHT22;6592;47.484;9.726;2022-08-03T12:46:28;43.60;50.00
13052;DHT22;6592;47.484;9.726;2022-08-03T12:48:57;43.40;49.90
13052;DHT22;6592;47.484;9.726;2022-08-03T12:51:25;43.40;49.50
13052;DHT22;6592;47.484;9.726;2022-08-03T12:53:54;43.50;49.50
13052;DHT22;6592;47.484;9.726;2022-08-03T12:56:23;43.60;50.10
13052;DHT22;6592;47.484;9.726;2022-08-03T12:58:53;43.60;50.20
13052;DHT22;6592;47.484;9.726;2022-08-03T13:01:21;43.60;50.10
13052;DHT22;6592;47.484;9.726;2022-08-03T13:03:51;43.70;50.20
13052;DHT22;6592;47.484;9.726;2022-08-03T13:06:21;43.70;50.00
13052;DHT22;6592;47.484;9.726;2022-08-03T13:08:59;43.90;49.50
13052;DHT22;6592;47.484;9.726;2022-08-03T13:11:28;43.70;48.70
13052;DHT22;6592;47.484;9.726;2022-08-03T13:14:17;43.60;48.30
13052;DHT22;6592;47.484;9.726;2022-08-03T13:16:46;43.80;49.10
13052;DHT22;6592;47.484;9.726;2022-08-03T13:19:14;43.80;48.40
13052;DHT22;6592;47.484;9.726;2022-08-03T13:21:43;43.70;49.00
13052;DHT22;6592;47.484;9.726;2022-08-03T13:24:30;43.60;49.00
13052;DHT22;6592;47.484;9.726;2022-08-03T13:26:58;43.50;48.60
13052;DHT22;6592;47.484;9.726;2022-08-03T13:29:47;43.20;49.10
13052;DHT22;6592;47.484;9.726;2022-08-03T13:32:15;43.00;49.00
13052;DHT22;6592;47.484;9.726;2022-08-03T13:34:43;43.00;47.30
13052;DHT22;6592;47.484;9.726;2022-08-03T13:37:12;43.10;48.10
13052;DHT22;6592;47.484;9.726;2022-08-03T13:39:40;43.20;48.90
13052;DHT22;6592;47.484;9.726;2022-08-03T13:42:25;43.00;48.70
13052;DHT22;6592;47.484;9.726;2022-08-03T13:44:55;42.80;49.10
13052;DHT22;6592;47.484;9.726;2022-08-03T13:47:23;42.40;49.60
13052;DHT22;6592;47.484;9.726;2022-08-03T13:49:51;41.80;47.80
13052;DHT22;6592;47.484;9.726;2022-08-03T13:52:26;41.30;49.00
13052;DHT22;6592;47.484;9.726;2022-08-03T13:54:54;40.70;50.50
13052;DHT22;6592;47.484;9.726;2022-08-03T13:57:22;40.20;50.20
13052;DHT22;6592;47.484;9.726;2022-08-03T14:00:12;39.70;51.10
13052;DHT22;6592;47.484;9.726;2022-08-03T14:02:54;39.30;51.40
13052;DHT22;6592;47.484;9.726;2022-08-03T14:05:29;38.90;50.80
13052;DHT22;6592;47.484;9.726;2022-08-03T14:07:58;38.40;52.90
13052;DHT22;6592;47.484;9.726;2022-08-03T14:10:30;38.10;53.80
13052;DHT22;6592;47.484;9.726;2022-08-03T14:12:58;37.70;54.60
13052;DHT22;6592;47.484;9.726;2022-08-03T14:15:28;37.50;54.70
13052;DHT22;6592;47.484;9.726;2022-08-03T14:17:56;37.40;54.20
13052;DHT22;6592;47.484;9.726;2022-08-03T14:20:24;37.20;54.90
13052;DHT22;6592;47.484;9.726;2022-08-03T14:23:12;37.00;53.40
13052;DHT22;6592;47.484;9.726;2022-08-03T14:25:40;36.90;53.90
13052;DHT22;6592;47.484;9.726;2022-08-03T14:28:17;36.60;52.20
13052;DHT22;6592;47.484;9.726;2022-08-03T14:30:47;36.50;52.80
13052;DHT22;6592;47.484;9.726;2022-08-03T14:33:15;36.30;54.10
13052;DHT22;6592;47.484;9.726;2022-08-03T14:35:43;36.10;52.70
13052;DHT22;6592;47.484;9.726;2022-08-03T14:38:11;35.90;54.70
13052;DHT22;6592;47.484;9.726;2022-08-03T14:40:39;35.80;53.80
13052;DHT22;6592;47.484;9.726;2022-08-03T14:43:07;35.70;54.80
13052;DHT22;6592;47.484;9.726;2022-08-03T14:45:35;35.60;56.50
13052;DHT22;6592;47.484;9.726;2022-08-03T14:48:05;35.50;55.90
13052;DHT22;6592;47.484;9.726;2022-08-03T14:50:53;35.60;56.10
13052;DHT22;6592;47.484;9.726;2022-08-03T14:53:22;35.40;55.30
13052;DHT22;6592;47.484;9.726;2022-08-03T14:55:50;35.40;54.00
13052;DHT22;6592;47.484;9.726;2022-08-03T14:58:19;35.30;53.80
13052;DHT22;6592;47.484;9.726;2022-08-03T15:00:48;35.30;53.60
13052;DHT22;6592;47.484;9.726;2022-08-03T15:03:18;35.20;53.30
13052;DHT22;6592;47.484;9.726;2022-08-03T15:05:49;35.10;56.20
13052;DHT22;6592;47.484;9.726;2022-08-03T15:08:18;35.00;53.20
13052;DHT22;6592;47.484;9.726;2022-08-03T15:10:46;34.90;53.20
13052;DHT22;6592;47.484;9.726;2022-08-03T15:13:15;34.90;54.70
13052;DHT22;6592;47.484;9.726;2022-08-03T15:15:43;34.90;54.90
13052;DHT22;6592;47.484;9.726;2022-08-03T15:18:11;34.90;55.00
13052;DHT22;6592;47.484;9.726;2022-08-03T15:20:40;34.80;53.80
13052;DHT22;6592;47.484;9.726;2022-08-03T15:23:12;34.70;55.30
13052;DHT22;6592;47.484;9.726;2022-08-03T15:25:40;34.70;53.80
13052;DHT22;6592;47.484;9.726;2022-08-03T15:28:28;34.70;53.10
13052;DHT22;6592;47.484;9.726;2022-08-03T15:30:56;34.70;52.80
13052;DHT22;6592;47.484;9.726;2022-08-03T15:33:25;34.80;53.30
13052;DHT22;6592;47.484;9.726;2022-08-03T15:35:54;34.70;53.80
13052;DHT22;6592;47.484;9.726;2022-08-03T15:38:22;34.70;54.30
13052;DHT22;6592;47.484;9.726;2022-08-03T15:40:51;34.70;54.30
13052;DHT22;6592;47.484;9.726;2022-08-03T15:43:20;34.70;54.00
13052;DHT22;6592;47.484;9.726;2022-08-03T15:45:48;34.70;51.90
13052;DHT22;6592;47.484;9.726;2022-08-03T15:48:36;34.60;52.10
13052;DHT22;6592;47.484;9.726;2022-08-03T15:51:05;34.60;53.60
13052;DHT22;6592;47.484;9.726;2022-08-03T15:53:33;34.60;54.20
13052;DHT22;6592;47.484;9.726;2022-08-03T15:56:02;34.60;52.80
13052;DHT22;6592;47.484;9.726;2022-08-03T15:58:37;34.60;52.00
13052;DHT22;6592;47.484;9.726;2022-08-03T16:01:25;34.60;51.70
13052;DHT22;6592;47.484;9.726;2022-08-03T16:03:53;34.60;51.40
13052;DHT22;6592;47.484;9.726;2022-08-03T16:06:22;34.50;49.50
13052;DHT22;6592;47.484;9.726;2022-08-03T16:09:01;34.40;49.40
13052;DHT22;6592;47.484;9.726;2022-08-03T16:11:29;34.40;50.50
13052;DHT22;6592;47.484;9.726;2022-08-03T16:13:57;34.30;48.40
13052;DHT22;6592;47.484;9.726;2022-08-03T16:16:46;34.30;46.80
13052;DHT22;6592;47.484;9.726;2022-08-03T16:19:14;34.30;46.90
13052;DHT22;6592;47.484;9.726;2022-08-03T16:21:43;34.20;44.10
13052;DHT22;6592;47.484;9.726;2022-08-03T16:24:14;34.10;42.00